Terminal Aerodrome Forecast
Issued by NWS Brownsville, TX

Home | Current Version | Previous Version | Text Only | Print | Product List | Glossary On
Versions: 1 2 3 4 5 6 7 8 9 10 11 12 13 14 15 16 17 18 19 20
000
FTUS44 KBRO 281740
TAFBRO
TAF
KBRO 281740Z 2818/2918 10007KT P6SM VCTS SCT035CB
      TEMPO 2818/2820 VRB16G25KT 2SM TSRA BKN020CB
     FM282200 14010KT P6SM SCT035
     FM290200 16006KT P6SM FEW025 BKN250
     FM291500 17015G20KT P6SM SCT040=

USA.gov is the U.S. government's official web portal to all federal, state and local government web resources and services.